sensor_id;sensor_type;location;lat;lon;timestamp;temperature;humidity
63435;DHT22;68814;50.872;5.306;2023-05-10T00:01:46;13.30;98.20
63435;DHT22;68814;50.872;5.306;2023-05-10T00:04:12;13.30;98.30
63435;DHT22;68814;50.872;5.306;2023-05-10T00:06:37;13.30;98.20
63435;DHT22;68814;50.872;5.306;2023-05-10T00:09:03;13.30;98.30
63435;DHT22;68814;50.872;5.306;2023-05-10T00:11:29;13.20;98.30
63435;DHT22;68814;50.872;5.306;2023-05-10T00:13:55;13.30;98.40
63435;DHT22;68814;50.872;5.306;2023-05-10T00:16:20;13.20;98.40
63435;DHT22;68814;50.872;5.306;2023-05-10T00:18:46;13.30;98.50
63435;DHT22;68814;50.872;5.306;2023-05-10T00:21:12;13.20;98.50
63435;DHT22;68814;50.872;5.306;2023-05-10T00:23:37;13.20;98.50
63435;DHT22;68814;50.872;5.306;2023-05-10T00:26:03;13.20;98.40
63435;DHT22;68814;50.872;5.306;2023-05-10T00:28:29;13.20;98.50
63435;DHT22;68814;50.872;5.306;2023-05-10T00:30:54;13.20;98.50
63435;DHT22;68814;50.872;5.306;2023-05-10T00:33:20;13.20;98.50
63435;DHT22;68814;50.872;5.306;2023-05-10T00:35:46;13.20;98.50
63435;DHT22;68814;50.872;5.306;2023-05-10T00:38:12;13.20;98.40
63435;DHT22;68814;50.872;5.306;2023-05-10T00:40:38;13.20;98.40
63435;DHT22;68814;50.872;5.306;2023-05-10T00:43:04;13.20;98.40
63435;DHT22;68814;50.872;5.306;2023-05-10T00:45:32;13.20;98.40
63435;DHT22;68814;50.872;5.306;2023-05-10T00:47:59;13.20;98.40
63435;DHT22;68814;50.872;5.306;2023-05-10T00:50:26;13.20;98.20
63435;DHT22;68814;50.872;5.306;2023-05-10T00:52:51;13.20;98.20
63435;DHT22;68814;50.872;5.306;2023-05-10T00:55:17;13.10;98.00
63435;DHT22;68814;50.872;5.306;2023-05-10T00:57:43;13.10;97.70
63435;DHT22;68814;50.872;5.306;2023-05-10T01:00:10;13.10;97.90
63435;DHT22;68814;50.872;5.306;2023-05-10T01:02:36;13.10;97.90
63435;DHT22;68814;50.872;5.306;2023-05-10T01:05:03;13.20;98.00
63435;DHT22;68814;50.872;5.306;2023-05-10T01:07:31;13.20;97.90
63435;DHT22;68814;50.872;5.306;2023-05-10T01:09:57;13.10;97.80
63435;DHT22;68814;50.872;5.306;2023-05-10T01:12:23;13.10;97.80
63435;DHT22;68814;50.872;5.306;2023-05-10T01:14:49;13.10;97.70
63435;DHT22;68814;50.872;5.306;2023-05-10T01:17:14;13.10;97.80
63435;DHT22;68814;50.872;5.306;2023-05-10T01:19:41;13.00;97.70
63435;DHT22;68814;50.872;5.306;2023-05-10T01:36:17;13.00;97.90
63435;DHT22;68814;50.872;5.306;2023-05-10T01:38:51;13.00;97.90
63435;DHT22;68814;50.872;5.306;2023-05-10T01:44:24;13.00;97.90
63435;DHT22;68814;50.872;5.306;2023-05-10T01:47:20;13.00;97.90
63435;DHT22;68814;50.872;5.306;2023-05-10T01:49:50;13.00;97.90
63435;DHT22;68814;50.872;5.306;2023-05-10T01:52:19;13.00;97.90
63435;DHT22;68814;50.872;5.306;2023-05-10T01:54:56;13.00;97.90
63435;DHT22;68814;50.872;5.306;2023-05-10T01:57:26;13.00;98.00
63435;DHT22;68814;50.872;5.306;2023-05-10T01:59:54;13.00;98.00
63435;DHT22;68814;50.872;5.306;2023-05-10T02:02:21;13.00;97.90
63435;DHT22;68814;50.872;5.306;2023-05-10T02:04:49;13.00;97.60
63435;DHT22;68814;50.872;5.306;2023-05-10T02:07:16;13.00;97.60
63435;DHT22;68814;50.872;5.306;2023-05-10T02:09:44;13.00;97.60
63435;DHT22;68814;50.872;5.306;2023-05-10T02:12:13;13.00;97.70
63435;DHT22;68814;50.872;5.306;2023-05-10T02:14:41;13.00;97.70
63435;DHT22;68814;50.872;5.306;2023-05-10T02:17:09;13.00;97.60
63435;DHT22;68814;50.872;5.306;2023-05-10T02:19:38;13.00;97.60
63435;DHT22;68814;50.872;5.306;2023-05-10T02:22:05;12.90;97.70
63435;DHT22;68814;50.872;5.306;2023-05-10T02:24:32;12.90;97.70
63435;DHT22;68814;50.872;5.306;2023-05-10T02:26:59;12.90;97.70
63435;DHT22;68814;50.872;5.306;2023-05-10T02:29:27;12.90;97.70
63435;DHT22;68814;50.872;5.306;2023-05-10T02:31:54;12.90;97.70
63435;DHT22;68814;50.872;5.306;2023-05-10T02:34:22;12.90;97.80
63435;DHT22;68814;50.872;5.306;2023-05-10T02:36:49;12.90;97.70
63435;DHT22;68814;50.872;5.306;2023-05-10T02:39:16;12.90;97.80
63435;DHT22;68814;50.872;5.306;2023-05-10T02:41:45;12.90;97.90
63435;DHT22;68814;50.872;5.306;2023-05-10T02:44:14;12.90;97.70
63435;DHT22;68814;50.872;5.306;2023-05-10T02:46:41;12.90;97.80
63435;DHT22;68814;50.872;5.306;2023-05-10T02:49:07;12.90;97.80
63435;DHT22;68814;50.872;5.306;2023-05-10T02:51:35;12.90;97.80
63435;DHT22;68814;50.872;5.306;2023-05-10T02:54:10;12.90;97.90
63435;DHT22;68814;50.872;5.306;2023-05-10T02:56:42;12.90;97.90
63435;DHT22;68814;50.872;5.306;2023-05-10T02:59:12;12.90;97.80
63435;DHT22;68814;50.872;5.306;2023-05-10T03:01:38;12.90;97.90
63435;DHT22;68814;50.872;5.306;2023-05-10T03:04:04;12.90;97.80
63435;DHT22;68814;50.872;5.306;2023-05-10T03:06:29;12.90;97.80
63435;DHT22;68814;50.872;5.306;2023-05-10T03:08:55;12.90;97.80
63435;DHT22;68814;50.872;5.306;2023-05-10T03:14:12;12.90;98.00
63435;DHT22;68814;50.872;5.306;2023-05-10T03:16:47;12.90;97.70
63435;DHT22;68814;50.872;5.306;2023-05-10T03:21:50;12.90;97.90
63435;DHT22;68814;50.872;5.306;2023-05-10T03:24:20;13.00;97.90
63435;DHT22;68814;50.872;5.306;2023-05-10T03:26:47;13.00;97.80
63435;DHT22;68814;50.872;5.306;2023-05-10T03:29:14;13.00;98.00
63435;DHT22;68814;50.872;5.306;2023-05-10T03:31:41;13.00;97.70
63435;DHT22;68814;50.872;5.306;2023-05-10T03:34:06;13.00;97.80
63435;DHT22;68814;50.872;5.306;2023-05-10T03:36:32;13.00;97.90
63435;DHT22;68814;50.872;5.306;2023-05-10T03:38:58;13.00;97.90
63435;DHT22;68814;50.872;5.306;2023-05-10T03:41:24;13.00;97.80
63435;DHT22;68814;50.872;5.306;2023-05-10T03:43:51;13.00;97.90
63435;DHT22;68814;50.872;5.306;2023-05-10T03:46:17;13.00;97.90
63435;DHT22;68814;50.872;5.306;2023-05-10T03:48:42;13.00;97.90
63435;DHT22;68814;50.872;5.306;2023-05-10T03:51:08;13.00;97.80
63435;DHT22;68814;50.872;5.306;2023-05-10T03:53:34;13.00;97.70
63435;DHT22;68814;50.872;5.306;2023-05-10T03:55:59;13.00;97.70
63435;DHT22;68814;50.872;5.306;2023-05-10T03:58:25;13.00;97.80
63435;DHT22;68814;50.872;5.306;2023-05-10T04:00:51;13.00;97.80
63435;DHT22;68814;50.872;5.306;2023-05-10T04:03:17;13.00;97.80
63435;DHT22;68814;50.872;5.306;2023-05-10T04:05:43;13.00;97.80
63435;DHT22;68814;50.872;5.306;2023-05-10T04:08:09;13.00;97.80
63435;DHT22;68814;50.872;5.306;2023-05-10T04:10:34;13.00;97.90
63435;DHT22;68814;50.872;5.306;2023-05-10T04:13:00;13.00;97.80
63435;DHT22;68814;50.872;5.306;2023-05-10T04:15:26;13.00;98.00
63435;DHT22;68814;50.872;5.306;2023-05-10T04:17:52;13.00;98.10
63435;DHT22;68814;50.872;5.306;2023-05-10T04:20:17;13.00;98.10
63435;DHT22;68814;50.872;5.306;2023-05-10T04:22:43;13.00;98.20
63435;DHT22;68814;50.872;5.306;2023-05-10T04:25:09;12.90;98.30
63435;DHT22;68814;50.872;5.306;2023-05-10T04:27:35;12.90;98.30
63435;DHT22;68814;50.872;5.306;2023-05-10T04:30:01;12.90;98.20
63435;DHT22;68814;50.872;5.306;2023-05-10T04:32:26;12.90;98.30
63435;DHT22;68814;50.872;5.306;2023-05-10T04:34:52;12.90;98.30
63435;DHT22;68814;50.872;5.306;2023-05-10T04:37:18;12.80;98.20
63435;DHT22;68814;50.872;5.306;2023-05-10T04:39:44;12.80;98.30
63435;DHT22;68814;50.872;5.306;2023-05-10T04:42:09;12.80;98.30
63435;DHT22;68814;50.872;5.306;2023-05-10T04:44:35;12.80;98.30
63435;DHT22;68814;50.872;5.306;2023-05-10T04:47:01;12.80;98.30
63435;DHT22;68814;50.872;5.306;2023-05-10T04:49:29;12.70;98.20
63435;DHT22;68814;50.872;5.306;2023-05-10T04:51:55;12.80;98.30
63435;DHT22;68814;50.872;5.306;2023-05-10T04:54:20;12.80;98.30
63435;DHT22;68814;50.872;5.306;2023-05-10T04:56:46;12.70;98.30
63435;DHT22;68814;50.872;5.306;2023-05-10T04:59:12;12.80;98.40
63435;DHT22;68814;50.872;5.306;2023-05-10T05:01:37;12.70;98.00
63435;DHT22;68814;50.872;5.306;2023-05-10T05:04:03;12.70;98.20
63435;DHT22;68814;50.872;5.306;2023-05-10T05:06:29;12.70;98.30
63435;DHT22;68814;50.872;5.306;2023-05-10T05:08:55;12.70;98.30
63435;DHT22;68814;50.872;5.306;2023-05-10T05:11:20;12.70;98.50
63435;DHT22;68814;50.872;5.306;2023-05-10T05:13:47;12.70;98.40
63435;DHT22;68814;50.872;5.306;2023-05-10T05:16:13;12.70;98.50
63435;DHT22;68814;50.872;5.306;2023-05-10T05:18:38;12.70;98.50
63435;DHT22;68814;50.872;5.306;2023-05-10T05:21:16;12.70;98.40
63435;DHT22;68814;50.872;5.306;2023-05-10T05:23:43;12.70;98.60
63435;DHT22;68814;50.872;5.306;2023-05-10T05:26:09;12.60;98.60
63435;DHT22;68814;50.872;5.306;2023-05-10T05:28:35;12.70;98.70
63435;DHT22;68814;50.872;5.306;2023-05-10T05:31:03;12.70;98.70
63435;DHT22;68814;50.872;5.306;2023-05-10T05:33:29;12.70;98.70
63435;DHT22;68814;50.872;5.306;2023-05-10T05:35:55;12.70;98.70
63435;DHT22;68814;50.872;5.306;2023-05-10T05:38:20;12.80;98.70
63435;DHT22;68814;50.872;5.306;2023-05-10T05:40:46;12.80;98.90
63435;DHT22;68814;50.872;5.306;2023-05-10T05:43:12;12.80;98.70
63435;DHT22;68814;50.872;5.306;2023-05-10T05:45:37;12.80;98.60
63435;DHT22;68814;50.872;5.306;2023-05-10T05:48:03;12.80;98.40
63435;DHT22;68814;50.872;5.306;2023-05-10T05:50:32;12.90;98.40
63435;DHT22;68814;50.872;5.306;2023-05-10T05:52:57;12.90;98.40
63435;DHT22;68814;50.872;5.306;2023-05-10T05:55:23;12.90;98.30
63435;DHT22;68814;50.872;5.306;2023-05-10T05:57:49;12.80;98.10
63435;DHT22;68814;50.872;5.306;2023-05-10T06:00:15;12.90;98.10
63435;DHT22;68814;50.872;5.306;2023-05-10T06:02:41;12.80;97.90
63435;DHT22;68814;50.872;5.306;2023-05-10T06:05:07;12.80;97.90
63435;DHT22;68814;50.872;5.306;2023-05-10T06:07:33;12.90;97.80
63435;DHT22;68814;50.872;5.306;2023-05-10T06:09:58;12.80;97.90
63435;DHT22;68814;50.872;5.306;2023-05-10T06:12:24;12.90;97.80
63435;DHT22;68814;50.872;5.306;2023-05-10T06:14:50;12.90;97.80
63435;DHT22;68814;50.872;5.306;2023-05-10T06:17:15;13.00;97.80
63435;DHT22;68814;50.872;5.306;2023-05-10T06:19:41;13.00;97.70
63435;DHT22;68814;50.872;5.306;2023-05-10T06:22:07;13.00;97.40
63435;DHT22;68814;50.872;5.306;2023-05-10T06:24:32;12.90;97.60
63435;DHT22;68814;50.872;5.306;2023-05-10T06:26:58;12.90;97.70
63435;DHT22;68814;50.872;5.306;2023-05-10T06:29:37;12.90;97.70
63435;DHT22;68814;50.872;5.306;2023-05-10T06:32:03;13.00;97.60
63435;DHT22;68814;50.872;5.306;2023-05-10T06:34:29;13.00;97.60
63435;DHT22;68814;50.872;5.306;2023-05-10T06:36:55;13.00;97.60
63435;DHT22;68814;50.872;5.306;2023-05-10T06:39:20;13.00;97.50
63435;DHT22;68814;50.872;5.306;2023-05-10T06:41:46;13.00;97.40
63435;DHT22;68814;50.872;5.306;2023-05-10T06:44:12;13.00;97.40
63435;DHT22;68814;50.872;5.306;2023-05-10T06:46:38;13.00;97.40
63435;DHT22;68814;50.872;5.306;2023-05-10T06:49:05;13.10;97.40
63435;DHT22;68814;50.872;5.306;2023-05-10T06:51:30;13.00;97.30
63435;DHT22;68814;50.872;5.306;2023-05-10T06:53:56;13.00;97.40
63435;DHT22;68814;50.872;5.306;2023-05-10T06:56:22;13.00;97.20
63435;DHT22;68814;50.872;5.306;2023-05-10T06:58:48;13.00;97.10
63435;DHT22;68814;50.872;5.306;2023-05-10T07:01:14;13.00;97.30
63435;DHT22;68814;50.872;5.306;2023-05-10T07:03:40;13.00;97.10
63435;DHT22;68814;50.872;5.306;2023-05-10T07:06:05;13.10;97.10
63435;DHT22;68814;50.872;5.306;2023-05-10T07:08:33;13.00;97.30
63435;DHT22;68814;50.872;5.306;2023-05-10T07:11:05;13.10;97.30
63435;DHT22;68814;50.872;5.306;2023-05-10T07:13:35;13.10;97.00
63435;DHT22;68814;50.872;5.306;2023-05-10T07:16:02;13.10;96.80
63435;DHT22;68814;50.872;5.306;2023-05-10T07:18:28;13.20;96.90
63435;DHT22;68814;50.872;5.306;2023-05-10T07:20:57;13.20;96.90
63435;DHT22;68814;50.872;5.306;2023-05-10T07:23:43;13.30;97.10
63435;DHT22;68814;50.872;5.306;2023-05-10T07:26:08;13.30;96.90
63435;DHT22;68814;50.872;5.306;2023-05-10T07:28:35;13.30;96.80
63435;DHT22;68814;50.872;5.306;2023-05-10T07:31:03;13.30;96.50
63435;DHT22;68814;50.872;5.306;2023-05-10T07:33:28;13.30;96.70
63435;DHT22;68814;50.872;5.306;2023-05-10T07:35:54;13.30;96.40
63435;DHT22;68814;50.872;5.306;2023-05-10T07:38:20;13.20;96.50
63435;DHT22;68814;50.872;5.306;2023-05-10T07:40:45;13.00;96.30
63435;DHT22;68814;50.872;5.306;2023-05-10T07:43:11;13.00;96.50
63435;DHT22;68814;50.872;5.306;2023-05-10T07:45:37;13.00;97.00
63435;DHT22;68814;50.872;5.306;2023-05-10T07:48:02;12.90;96.60
63435;DHT22;68814;50.872;5.306;2023-05-10T07:50:28;12.90;96.60
63435;DHT22;68814;50.872;5.306;2023-05-10T07:52:54;12.80;96.50
63435;DHT22;68814;50.872;5.306;2023-05-10T07:55:20;12.80;97.00
63435;DHT22;68814;50.872;5.306;2023-05-10T07:57:46;12.80;96.80
63435;DHT22;68814;50.872;5.306;2023-05-10T08:00:13;12.80;96.90
63435;DHT22;68814;50.872;5.306;2023-05-10T08:02:42;12.80;96.40
63435;DHT22;68814;50.872;5.306;2023-05-10T08:05:07;12.80;96.80
63435;DHT22;68814;50.872;5.306;2023-05-10T08:07:33;12.80;96.10
63435;DHT22;68814;50.872;5.306;2023-05-10T08:09:59;12.80;96.40
63435;DHT22;68814;50.872;5.306;2023-05-10T08:12:24;12.80;96.30
63435;DHT22;68814;50.872;5.306;2023-05-10T08:14:50;12.80;96.10
63435;DHT22;68814;50.872;5.306;2023-05-10T08:17:16;12.80;96.20
63435;DHT22;68814;50.872;5.306;2023-05-10T08:19:41;12.80;96.40
63435;DHT22;68814;50.872;5.306;2023-05-10T08:22:07;12.80;95.90
63435;DHT22;68814;50.872;5.306;2023-05-10T08:24:33;12.90;96.60
63435;DHT22;68814;50.872;5.306;2023-05-10T08:27:04;12.90;96.70
63435;DHT22;68814;50.872;5.306;2023-05-10T08:29:30;12.80;96.10
63435;DHT22;68814;50.872;5.306;2023-05-10T08:31:55;12.80;96.30
63435;DHT22;68814;50.872;5.306;2023-05-10T08:34:21;12.80;96.30
63435;DHT22;68814;50.872;5.306;2023-05-10T08:36:47;12.80;95.80
63435;DHT22;68814;50.872;5.306;2023-05-10T08:39:12;12.80;96.50
63435;DHT22;68814;50.872;5.306;2023-05-10T08:41:39;12.70;96.30
63435;DHT22;68814;50.872;5.306;2023-05-10T08:44:08;12.70;96.20
63435;DHT22;68814;50.872;5.306;2023-05-10T08:46:34;12.70;96.50
63435;DHT22;68814;50.872;5.306;2023-05-10T08:49:04;12.70;96.70
63435;DHT22;68814;50.872;5.306;2023-05-10T08:51:38;12.70;96.10
63435;DHT22;68814;50.872;5.306;2023-05-10T08:54:05;12.70;96.20
63435;DHT22;68814;50.872;5.306;2023-05-10T08:56:31;12.60;96.50
63435;DHT22;68814;50.872;5.306;2023-05-10T08:58:57;12.70;96.60
63435;DHT22;68814;50.872;5.306;2023-05-10T09:01:23;12.70;96.60
63435;DHT22;68814;50.872;5.306;2023-05-10T09:03:50;12.70;96.50
63435;DHT22;68814;50.872;5.306;2023-05-10T09:06:16;12.80;96.80
63435;DHT22;68814;50.872;5.306;2023-05-10T09:08:42;12.90;96.70
63435;DHT22;68814;50.872;5.306;2023-05-10T09:11:09;13.00;96.40
63435;DHT22;68814;50.872;5.306;2023-05-10T09:13:35;13.10;96.00
63435;DHT22;68814;50.872;5.306;2023-05-10T09:16:02;13.10;96.20
63435;DHT22;68814;50.872;5.306;2023-05-10T09:18:28;13.10;96.00
63435;DHT22;68814;50.872;5.306;2023-05-10T09:20:54;13.10;95.90
63435;DHT22;68814;50.872;5.306;2023-05-10T09:23:20;13.20;96.10
63435;DHT22;68814;50.872;5.306;2023-05-10T09:25:46;13.30;95.90
63435;DHT22;68814;50.872;5.306;2023-05-10T09:28:12;13.40;95.70
63435;DHT22;68814;50.872;5.306;2023-05-10T09:30:38;13.40;95.70
63435;DHT22;68814;50.872;5.306;2023-05-10T09:33:04;13.50;95.40
63435;DHT22;68814;50.872;5.306;2023-05-10T09:35:31;13.60;95.40
63435;DHT22;68814;50.872;5.306;2023-05-10T09:38:01;13.70;95.80
63435;DHT22;68814;50.872;5.306;2023-05-10T09:40:29;13.70;95.50
63435;DHT22;68814;50.872;5.306;2023-05-10T09:43:03;13.80;94.50
63435;DHT22;68814;50.872;5.306;2023-05-10T09:45:33;13.80;95.20
63435;DHT22;68814;50.872;5.306;2023-05-10T09:48:01;13.80;94.80
63435;DHT22;68814;50.872;5.306;2023-05-10T09:50:28;13.80;95.60
63435;DHT22;68814;50.872;5.306;2023-05-10T09:52:56;13.90;95.80
63435;DHT22;68814;50.872;5.306;2023-05-10T09:55:43;14.00;94.50
63435;DHT22;68814;50.872;5.306;2023-05-10T09:58:15;14.00;95.20
63435;DHT22;68814;50.872;5.306;2023-05-10T10:00:45;14.10;94.80
63435;DHT22;68814;50.872;5.306;2023-05-10T10:03:20;14.10;95.10
63435;DHT22;68814;50.872;5.306;2023-05-10T10:05:46;14.20;95.20
63435;DHT22;68814;50.872;5.306;2023-05-10T10:08:13;14.10;94.20
63435;DHT22;68814;50.872;5.306;2023-05-10T10:10:39;14.20;94.20
63435;DHT22;68814;50.872;5.306;2023-05-10T10:13:12;14.10;94.10
63435;DHT22;68814;50.872;5.306;2023-05-10T10:15:38;14.10;94.60
63435;DHT22;68814;50.872;5.306;2023-05-10T10:18:05;14.10;94.40
63435;DHT22;68814;50.872;5.306;2023-05-10T10:20:31;14.10;94.60
63435;DHT22;68814;50.872;5.306;2023-05-10T10:22:56;14.10;94.20
63435;DHT22;68814;50.872;5.306;2023-05-10T10:25:22;14.00;94.50
63435;DHT22;68814;50.872;5.306;2023-05-10T10:35:33;14.10;94.50
63435;DHT22;68814;50.872;5.306;2023-05-10T10:38:00;14.10;94.20
63435;DHT22;68814;50.872;5.306;2023-05-10T10:40:28;14.00;94.80
63435;DHT22;68814;50.872;5.306;2023-05-10T10:42:55;14.10;94.80
63435;DHT22;68814;50.872;5.306;2023-05-10T10:45:21;14.10;94.40
63435;DHT22;68814;50.872;5.306;2023-05-10T10:47:48;14.10;94.40
63435;DHT22;68814;50.872;5.306;2023-05-10T10:50:14;14.10;94.30
63435;DHT22;68814;50.872;5.306;2023-05-10T10:52:42;14.10;94.10
63435;DHT22;68814;50.872;5.306;2023-05-10T10:55:13;14.10;94.30
63435;DHT22;68814;50.872;5.306;2023-05-10T10:57:51;14.20;94.20
63435;DHT22;68814;50.872;5.306;2023-05-10T11:00:31;14.30;93.70
63435;DHT22;68814;50.872;5.306;2023-05-10T11:03:13;14.30;93.40
63435;DHT22;68814;50.872;5.306;2023-05-10T11:05:50;14.30;94.30
63435;DHT22;68814;50.872;5.306;2023-05-10T11:08:33;14.30;94.00
63435;DHT22;68814;50.872;5.306;2023-05-10T11:13:43;14.40;93.80
63435;DHT22;68814;50.872;5.306;2023-05-10T11:16:29;14.50;93.30
63435;DHT22;68814;50.872;5.306;2023-05-10T11:19:10;14.50;93.10
63435;DHT22;68814;50.872;5.306;2023-05-10T11:24:30;14.60;94.00
63435;DHT22;68814;50.872;5.306;2023-05-10T11:26:57;14.70;93.30
63435;DHT22;68814;50.872;5.306;2023-05-10T11:29:22;14.70;93.00
63435;DHT22;68814;50.872;5.306;2023-05-10T11:31:49;14.70;93.60
63435;DHT22;68814;50.872;5.306;2023-05-10T11:34:25;14.80;93.80
63435;DHT22;68814;50.872;5.306;2023-05-10T11:36:53;14.90;93.50
63435;DHT22;68814;50.872;5.306;2023-05-10T11:39:19;14.90;92.90
63435;DHT22;68814;50.872;5.306;2023-05-10T11:41:49;14.90;92.40
63435;DHT22;68814;50.872;5.306;2023-05-10T11:44:15;14.90;92.80
63435;DHT22;68814;50.872;5.306;2023-05-10T11:46:41;15.00;92.50
63435;DHT22;68814;50.872;5.306;2023-05-10T11:49:07;15.00;92.80
63435;DHT22;68814;50.872;5.306;2023-05-10T11:51:34;15.00;92.40
63435;DHT22;68814;50.872;5.306;2023-05-10T11:54:05;15.10;92.80
63435;DHT22;68814;50.872;5.306;2023-05-10T11:56:32;15.10;91.70
63435;DHT22;68814;50.872;5.306;2023-05-10T11:58:58;15.20;92.40
63435;DHT22;68814;50.872;5.306;2023-05-10T12:01:26;15.20;92.10
63435;DHT22;68814;50.872;5.306;2023-05-10T12:03:53;15.20;91.90
63435;DHT22;68814;50.872;5.306;2023-05-10T12:06:20;15.30;92.30
63435;DHT22;68814;50.872;5.306;2023-05-10T12:08:48;15.40;92.30
63435;DHT22;68814;50.872;5.306;2023-05-10T12:11:17;15.40;92.20
63435;DHT22;68814;50.872;5.306;2023-05-10T12:13:44;15.60;92.10
63435;DHT22;68814;50.872;5.306;2023-05-10T12:16:24;15.70;92.70
63435;DHT22;68814;50.872;5.306;2023-05-10T12:18:51;15.90;91.70
63435;DHT22;68814;50.872;5.306;2023-05-10T12:21:18;16.00;91.80
63435;DHT22;68814;50.872;5.306;2023-05-10T12:23:45;16.10;90.30
63435;DHT22;68814;50.872;5.306;2023-05-10T12:26:12;16.10;90.40
63435;DHT22;68814;50.872;5.306;2023-05-10T12:28:38;16.10;91.10
63435;DHT22;68814;50.872;5.306;2023-05-10T12:31:08;16.30;88.10
63435;DHT22;68814;50.872;5.306;2023-05-10T12:33:38;16.40;89.20
63435;DHT22;68814;50.872;5.306;2023-05-10T12:36:05;16.40;86.40
63435;DHT22;68814;50.872;5.306;2023-05-10T12:38:39;16.40;88.60
63435;DHT22;68814;50.872;5.306;2023-05-10T12:41:06;16.40;89.90
63435;DHT22;68814;50.872;5.306;2023-05-10T12:43:33;16.60;88.90
63435;DHT22;68814;50.872;5.306;2023-05-10T12:46:11;16.60;85.60
63435;DHT22;68814;50.872;5.306;2023-05-10T12:48:37;16.70;87.90
63435;DHT22;68814;50.872;5.306;2023-05-10T12:51:04;16.70;90.10
63435;DHT22;68814;50.872;5.306;2023-05-10T12:53:30;16.80;86.40
63435;DHT22;68814;50.872;5.306;2023-05-10T12:55:56;16.80;86.10
63435;DHT22;68814;50.872;5.306;2023-05-10T12:58:22;16.90;85.40
63435;DHT22;68814;50.872;5.306;2023-05-10T13:00:47;17.00;86.50
63435;DHT22;68814;50.872;5.306;2023-05-10T13:03:13;17.20;84.60
63435;DHT22;68814;50.872;5.306;2023-05-10T13:05:40;17.30;85.00
63435;DHT22;68814;50.872;5.306;2023-05-10T13:08:05;17.60;85.70
63435;DHT22;68814;50.872;5.306;2023-05-10T13:10:31;17.70;82.80
63435;DHT22;68814;50.872;5.306;2023-05-10T13:12:58;17.60;81.10
63435;DHT22;68814;50.872;5.306;2023-05-10T13:15:24;17.70;81.90
63435;DHT22;68814;50.872;5.306;2023-05-10T13:17:50;17.60;83.10
63435;DHT22;68814;50.872;5.306;2023-05-10T13:20:16;17.60;82.60
63435;DHT22;68814;50.872;5.306;2023-05-10T13:22:43;17.70;83.10
63435;DHT22;68814;50.872;5.306;2023-05-10T13:25:10;17.60;80.10
63435;DHT22;68814;50.872;5.306;2023-05-10T13:27:36;17.50;81.40
63435;DHT22;68814;50.872;5.306;2023-05-10T13:30:03;17.50;80.70
63435;DHT22;68814;50.872;5.306;2023-05-10T13:32:29;17.40;81.80
63435;DHT22;68814;50.872;5.306;2023-05-10T13:34:55;17.40;83.20
63435;DHT22;68814;50.872;5.306;2023-05-10T13:37:21;17.40;83.30
63435;DHT22;68814;50.872;5.306;2023-05-10T13:39:47;17.30;82.60
63435;DHT22;68814;50.872;5.306;2023-05-10T13:42:13;17.30;80.50
63435;DHT22;68814;50.872;5.306;2023-05-10T13:44:39;17.20;80.70
63435;DHT22;68814;50.872;5.306;2023-05-10T13:47:05;17.10;82.40
63435;DHT22;68814;50.872;5.306;2023-05-10T13:49:31;17.10;83.40
63435;DHT22;68814;50.872;5.306;2023-05-10T13:51:56;17.20;83.50
63435;DHT22;68814;50.872;5.306;2023-05-10T13:54:23;17.20;83.50
63435;DHT22;68814;50.872;5.306;2023-05-10T13:56:49;17.30;82.20
63435;DHT22;68814;50.872;5.306;2023-05-10T13:59:15;17.50;82.20
63435;DHT22;68814;50.872;5.306;2023-05-10T14:01:41;17.60;81.30
63435;DHT22;68814;50.872;5.306;2023-05-10T14:04:08;17.70;78.90
63435;DHT22;68814;50.872;5.306;2023-05-10T14:06:37;17.80;76.80
63435;DHT22;68814;50.872;5.306;2023-05-10T14:09:05;17.80;77.00
63435;DHT22;68814;50.872;5.306;2023-05-10T14:11:30;17.70;79.00
63435;DHT22;68814;50.872;5.306;2023-05-10T14:13:59;17.70;79.50
63435;DHT22;68814;50.872;5.306;2023-05-10T14:16:25;17.60;78.40
63435;DHT22;68814;50.872;5.306;2023-05-10T14:18:51;17.60;78.40
63435;DHT22;68814;50.872;5.306;2023-05-10T14:21:17;17.60;78.80
63435;DHT22;68814;50.872;5.306;2023-05-10T14:23:43;17.60;81.00
63435;DHT22;68814;50.872;5.306;2023-05-10T14:26:08;17.70;79.00
63435;DHT22;68814;50.872;5.306;2023-05-10T14:28:34;17.80;78.00
63435;DHT22;68814;50.872;5.306;2023-05-10T14:31:00;17.70;77.80
63435;DHT22;68814;50.872;5.306;2023-05-10T14:33:25;17.90;78.30
63435;DHT22;68814;50.872;5.306;2023-05-10T14:35:51;18.10;77.70
63435;DHT22;68814;50.872;5.306;2023-05-10T14:38:17;18.30;77.90
63435;DHT22;68814;50.872;5.306;2023-05-10T14:40:42;18.40;75.70
63435;DHT22;68814;50.872;5.306;2023-05-10T14:43:08;18.40;73.90
63435;DHT22;68814;50.872;5.306;2023-05-10T14:45:34;18.40;75.00
63435;DHT22;68814;50.872;5.306;2023-05-10T14:48:00;18.50;74.60
63435;DHT22;68814;50.872;5.306;2023-05-10T14:50:26;18.60;74.30
63435;DHT22;68814;50.872;5.306;2023-05-10T14:52:52;18.80;75.00
63435;DHT22;68814;50.872;5.306;2023-05-10T14:55:18;19.10;73.00
63435;DHT22;68814;50.872;5.306;2023-05-10T14:57:44;19.30;72.40
63435;DHT22;68814;50.872;5.306;2023-05-10T15:00:12;19.40;71.40
63435;DHT22;68814;50.872;5.306;2023-05-10T15:02:38;19.50;71.10
63435;DHT22;68814;50.872;5.306;2023-05-10T15:05:04;20.00;69.40
63435;DHT22;68814;50.872;5.306;2023-05-10T15:07:29;20.40;67.90
63435;DHT22;68814;50.872;5.306;2023-05-10T15:09:56;20.90;63.80
63435;DHT22;68814;50.872;5.306;2023-05-10T15:12:22;21.20;63.50
63435;DHT22;68814;50.872;5.306;2023-05-10T15:14:48;21.40;61.20
63435;DHT22;68814;50.872;5.306;2023-05-10T15:17:13;21.60;59.70
63435;DHT22;68814;50.872;5.306;2023-05-10T15:19:39;21.70;59.20
63435;DHT22;68814;50.872;5.306;2023-05-10T15:22:05;21.60;59.60
63435;DHT22;68814;50.872;5.306;2023-05-10T15:24:31;22.10;61.80
63435;DHT22;68814;50.872;5.306;2023-05-10T15:26:57;22.90;56.30
63435;DHT22;68814;50.872;5.306;2023-05-10T15:29:22;23.00;58.80
63435;DHT22;68814;50.872;5.306;2023-05-10T15:31:49;22.80;59.10
63435;DHT22;68814;50.872;5.306;2023-05-10T15:34:16;22.90;58.50
63435;DHT22;68814;50.872;5.306;2023-05-10T15:36:43;22.60;57.50
63435;DHT22;68814;50.872;5.306;2023-05-10T15:39:10;22.10;59.00
63435;DHT22;68814;50.872;5.306;2023-05-10T15:41:36;21.70;60.70
63435;DHT22;68814;50.872;5.306;2023-05-10T15:44:01;21.70;61.40
63435;DHT22;68814;50.872;5.306;2023-05-10T15:46:28;21.70;61.00
63435;DHT22;68814;50.872;5.306;2023-05-10T15:48:54;22.00;63.00
63435;DHT22;68814;50.872;5.306;2023-05-10T15:51:19;22.40;60.10
63435;DHT22;68814;50.872;5.306;2023-05-10T15:53:45;22.50;60.30
63435;DHT22;68814;50.872;5.306;2023-05-10T15:56:11;22.30;59.30
63435;DHT22;68814;50.872;5.306;2023-05-10T15:58:38;22.30;59.60
63435;DHT22;68814;50.872;5.306;2023-05-10T16:01:04;22.30;57.60
63435;DHT22;68814;50.872;5.306;2023-05-10T16:03:35;21.80;60.20
63435;DHT22;68814;50.872;5.306;2023-05-10T16:06:01;21.40;61.10